sensor_id;sensor_type;location;lat;lon;timestamp;pressure;altitude;pressure_sealevel;temperature;humidity
37634;BME280;32048;49.902;22.508;2023-03-21T00:01:51;98576.47;;;9.46;100.00
37634;BME280;32048;49.902;22.508;2023-03-21T00:04:21;98572.81;;;9.49;100.00
37634;BME280;32048;49.902;22.508;2023-03-21T00:06:48;98567.38;;;9.52;100.00
37634;BME280;32048;49.902;22.508;2023-03-21T00:09:15;98568.78;;;9.59;100.00
37634;BME280;32048;49.902;22.508;2023-03-21T00:11:42;98572.91;;;9.65;100.00
37634;BME280;32048;49.902;22.508;2023-03-21T00:14:10;98565.78;;;9.67;100.00
37634;BME280;32048;49.902;22.508;2023-03-21T00:16:40;98569.25;;;9.67;100.00
37634;BME280;32048;49.902;22.508;2023-03-21T00:19:08;98559.47;;;9.69;100.00
37634;BME280;32048;49.902;22.508;2023-03-21T00:21:36;98565.53;;;9.71;100.00
37634;BME280;32048;49.902;22.508;2023-03-21T00:24:24;98562.06;;;9.71;100.00
37634;BME280;32048;49.902;22.508;2023-03-21T00:26:51;98563.75;;;9.72;100.00
37634;BME280;32048;49.902;22.508;2023-03-21T00:29:19;98558.41;;;9.73;100.00
37634;BME280;32048;49.902;22.508;2023-03-21T00:31:46;98560.09;;;9.74;100.00
37634;BME280;32048;49.902;22.508;2023-03-21T00:34:13;98560.88;;;9.76;100.00
37634;BME280;32048;49.902;22.508;2023-03-21T00:36:45;98556.53;;;9.75;100.00
37634;BME280;32048;49.902;22.508;2023-03-21T00:39:12;98557.53;;;9.73;100.00
37634;BME280;32048;49.902;22.508;2023-03-21T00:41:40;98556.53;;;9.75;100.00
37634;BME280;32048;49.902;22.508;2023-03-21T00:44:12;98555.91;;;9.70;100.00
37634;BME280;32048;49.902;22.508;2023-03-21T00:46:41;98554.03;;;9.72;100.00
37634;BME280;32048;49.902;22.508;2023-03-21T00:49:23;98551.56;;;9.69;100.00
37634;BME280;32048;49.902;22.508;2023-03-21T00:51:49;98554.88;;;9.73;100.00
37634;BME280;32048;49.902;22.508;2023-03-21T00:54:17;98549.59;;;9.73;100.00
37634;BME280;32048;49.902;22.508;2023-03-21T00:56:45;98546.28;;;9.69;100.00
37634;BME280;32048;49.902;22.508;2023-03-21T00:59:12;98543.72;;;9.68;100.00
37634;BME280;32048;49.902;22.508;2023-03-21T01:01:39;98541.34;;;9.63;100.00
37634;BME280;32048;49.902;22.508;2023-03-21T01:04:07;98543.91;;;9.65;100.00
37634;BME280;32048;49.902;22.508;2023-03-21T01:06:40;98544.56;;;9.68;100.00
37634;BME280;32048;49.902;22.508;2023-03-21T01:09:16;98545.44;;;9.69;100.00
37634;BME280;32048;49.902;22.508;2023-03-21T01:11:44;98549.72;;;9.71;100.00
37634;BME280;32048;49.902;22.508;2023-03-21T01:14:13;98545.28;;;9.72;100.00
37634;BME280;32048;49.902;22.508;2023-03-21T01:16:52;98551.50;;;9.71;100.00
37634;BME280;32048;49.902;22.508;2023-03-21T01:19:23;98550.63;;;9.70;100.00
37634;BME280;32048;49.902;22.508;2023-03-21T01:22:12;98544.69;;;9.67;100.00
37634;BME280;32048;49.902;22.508;2023-03-21T01:24:39;98549.00;;;9.68;100.00
37634;BME280;32048;49.902;22.508;2023-03-21T01:27:19;98550.78;;;9.67;100.00
37634;BME280;32048;49.902;22.508;2023-03-21T01:29:46;98543.72;;;9.68;100.00
37634;BME280;32048;49.902;22.508;2023-03-21T01:32:13;98545.34;;;9.70;100.00
37634;BME280;32048;49.902;22.508;2023-03-21T01:34:40;98540.19;;;9.69;100.00
37634;BME280;32048;49.902;22.508;2023-03-21T01:37:07;98538.31;;;9.71;100.00
37634;BME280;32048;49.902;22.508;2023-03-21T01:39:35;98537.53;;;9.69;100.00
37634;BME280;32048;49.902;22.508;2023-03-21T01:42:02;98537.44;;;9.70;100.00
37634;BME280;32048;49.902;22.508;2023-03-21T01:44:29;98539.94;;;9.73;100.00
37634;BME280;32048;49.902;22.508;2023-03-21T01:46:57;98540.00;;;9.72;100.00
37634;BME280;32048;49.902;22.508;2023-03-21T01:49:42;98530.41;;;9.71;100.00
37634;BME280;32048;49.902;22.508;2023-03-21T01:52:18;98528.75;;;9.68;100.00
37634;BME280;32048;49.902;22.508;2023-03-21T01:55:04;98528.69;;;9.70;100.00
37634;BME280;32048;49.902;22.508;2023-03-21T01:57:38;98532.34;;;9.67;100.00
37634;BME280;32048;49.902;22.508;2023-03-21T02:00:25;98528.84;;;9.67;100.00
37634;BME280;32048;49.902;22.508;2023-03-21T02:02:55;98528.09;;;9.65;100.00
37634;BME280;32048;49.902;22.508;2023-03-21T02:08:07;98532.50;;;9.64;100.00
37634;BME280;32048;49.902;22.508;2023-03-21T02:10:34;98534.13;;;9.67;100.00
37634;BME280;32048;49.902;22.508;2023-03-21T02:13:03;98534.03;;;9.68;100.00
37634;BME280;32048;49.902;22.508;2023-03-21T02:15:41;98531.50;;;9.67;100.00
37634;BME280;32048;49.902;22.508;2023-03-21T02:18:23;98522.81;;;9.65;100.00
37634;BME280;32048;49.902;22.508;2023-03-21T02:27:03;98526.59;;;9.59;100.00
37634;BME280;32048;49.902;22.508;2023-03-21T02:35:34;98523.53;;;9.51;100.00
37634;BME280;32048;49.902;22.508;2023-03-21T02:40:55;98533.38;;;9.47;100.00
37634;BME280;32048;49.902;22.508;2023-03-21T02:43:30;98527.31;;;9.45;100.00
37634;BME280;32048;49.902;22.508;2023-03-21T02:46:18;98526.16;;;9.33;100.00
37634;BME280;32048;49.902;22.508;2023-03-21T02:49:04;98527.31;;;9.28;100.00
37634;BME280;32048;49.902;22.508;2023-03-21T02:51:33;98531.97;;;9.23;100.00
37634;BME280;32048;49.902;22.508;2023-03-21T02:54:05;98536.75;;;9.14;100.00
37634;BME280;32048;49.902;22.508;2023-03-21T02:56:55;98532.66;;;9.09;100.00
37634;BME280;32048;49.902;22.508;2023-03-21T02:59:26;98533.19;;;8.98;100.00
37634;BME280;32048;49.902;22.508;2023-03-21T03:01:54;98536.09;;;8.92;100.00
37634;BME280;32048;49.902;22.508;2023-03-21T03:04:26;98536.25;;;8.89;100.00
37634;BME280;32048;49.902;22.508;2023-03-21T03:09:58;98533.38;;;8.76;100.00
37634;BME280;32048;49.902;22.508;2023-03-21T03:15:23;98536.31;;;8.70;100.00
37634;BME280;32048;49.902;22.508;2023-03-21T03:20:47;98539.34;;;8.61;100.00
37634;BME280;32048;49.902;22.508;2023-03-21T03:24:05;98535.25;;;8.55;100.00
37634;BME280;32048;49.902;22.508;2023-03-21T03:26:29;98537.16;;;8.51;100.00
37634;BME280;32048;49.902;22.508;2023-03-21T03:29:03;98535.47;;;8.50;100.00
37634;BME280;32048;49.902;22.508;2023-03-21T03:31:36;98536.25;;;8.52;100.00
37634;BME280;32048;49.902;22.508;2023-03-21T03:34:09;98533.75;;;8.49;100.00
37634;BME280;32048;49.902;22.508;2023-03-21T03:36:44;98530.44;;;8.46;100.00
37634;BME280;32048;49.902;22.508;2023-03-21T03:39:14;98526.06;;;8.45;100.00
37634;BME280;32048;49.902;22.508;2023-03-21T03:41:51;98532.34;;;8.42;100.00
37634;BME280;32048;49.902;22.508;2023-03-21T03:44:40;98535.03;;;8.41;100.00
37634;BME280;32048;49.902;22.508;2023-03-21T03:47:18;98535.94;;;8.40;100.00
37634;BME280;32048;49.902;22.508;2023-03-21T03:50:06;98536.81;;;8.40;100.00
37634;BME280;32048;49.902;22.508;2023-03-21T03:53:00;98530.72;;;8.38;100.00
37634;BME280;32048;49.902;22.508;2023-03-21T03:55:42;98533.28;;;8.41;100.00
37634;BME280;32048;49.902;22.508;2023-03-21T03:58:10;98536.88;;;8.39;100.00
37634;BME280;32048;49.902;22.508;2023-03-21T04:00:49;98533.31;;;8.40;100.00
37634;BME280;32048;49.902;22.508;2023-03-21T04:03:17;98529.91;;;8.38;100.00
37634;BME280;32048;49.902;22.508;2023-03-21T04:05:44;98532.59;;;8.36;100.00
37634;BME280;32048;49.902;22.508;2023-03-21T04:08:15;98537.94;;;8.35;100.00
37634;BME280;32048;49.902;22.508;2023-03-21T04:10:43;98538.00;;;8.33;100.00
37634;BME280;32048;49.902;22.508;2023-03-21T04:13:10;98532.69;;;8.35;100.00
37634;BME280;32048;49.902;22.508;2023-03-21T04:15:37;98531.84;;;8.34;100.00
37634;BME280;32048;49.902;22.508;2023-03-21T04:18:04;98533.69;;;8.32;100.00
37634;BME280;32048;49.902;22.508;2023-03-21T04:20:31;98528.53;;;8.29;100.00
37634;BME280;32048;49.902;22.508;2023-03-21T04:23:04;98533.81;;;8.29;100.00
37634;BME280;32048;49.902;22.508;2023-03-21T04:25:35;98531.25;;;8.27;100.00
37634;BME280;32048;49.902;22.508;2023-03-21T04:28:13;98533.00;;;8.27;100.00
37634;BME280;32048;49.902;22.508;2023-03-21T04:30:40;98532.09;;;8.28;100.00
37634;BME280;32048;49.902;22.508;2023-03-21T04:33:24;98526.00;;;8.27;100.00
37634;BME280;32048;49.902;22.508;2023-03-21T04:35:52;98540.63;;;8.33;100.00
37634;BME280;32048;49.902;22.508;2023-03-21T04:38:22;98527.47;;;8.33;100.00
37634;BME280;32048;49.902;22.508;2023-03-21T04:40:53;98534.47;;;8.34;100.00
37634;BME280;32048;49.902;22.508;2023-03-21T04:43:21;98528.41;;;8.32;100.00
37634;BME280;32048;49.902;22.508;2023-03-21T04:45:50;98525.78;;;8.32;100.00
37634;BME280;32048;49.902;22.508;2023-03-21T04:48:18;98533.47;;;8.37;100.00
37634;BME280;32048;49.902;22.508;2023-03-21T04:50:45;98530.56;;;8.43;100.00
37634;BME280;32048;49.902;22.508;2023-03-21T04:53:12;98526.94;;;8.45;100.00
37634;BME280;32048;49.902;22.508;2023-03-21T04:55:39;98532.91;;;8.49;100.00
37634;BME280;32048;49.902;22.508;2023-03-21T04:58:07;98532.78;;;8.52;100.00
37634;BME280;32048;49.902;22.508;2023-03-21T05:00:34;98530.91;;;8.54;100.00
37634;BME280;32048;49.902;22.508;2023-03-21T05:03:05;98540.47;;;8.57;100.00
37634;BME280;32048;49.902;22.508;2023-03-21T05:05:37;98542.16;;;8.58;100.00
37634;BME280;32048;49.902;22.508;2023-03-21T05:08:05;98547.78;;;8.50;100.00
37634;BME280;32048;49.902;22.508;2023-03-21T05:10:32;98552.69;;;8.58;100.00
37634;BME280;32048;49.902;22.508;2023-03-21T05:13:00;98545.72;;;8.57;100.00
37634;BME280;32048;49.902;22.508;2023-03-21T05:15:27;98552.63;;;8.59;100.00
37634;BME280;32048;49.902;22.508;2023-03-21T05:17:54;98545.56;;;8.60;100.00
37634;BME280;32048;49.902;22.508;2023-03-21T05:20:24;98552.41;;;8.64;100.00
37634;BME280;32048;49.902;22.508;2023-03-21T05:22:52;98551.44;;;8.65;100.00
37634;BME280;32048;49.902;22.508;2023-03-21T05:25:19;98549.75;;;8.64;100.00
37634;BME280;32048;49.902;22.508;2023-03-21T05:28:00;98543.56;;;8.65;100.00
37634;BME280;32048;49.902;22.508;2023-03-21T05:30:27;98549.88;;;8.61;100.00
37634;BME280;32048;49.902;22.508;2023-03-21T05:32:56;98554.31;;;8.60;100.00
37634;BME280;32048;49.902;22.508;2023-03-21T05:35:23;98549.88;;;8.61;100.00
37634;BME280;32048;49.902;22.508;2023-03-21T05:37:52;98550.81;;;8.60;100.00
37634;BME280;32048;49.902;22.508;2023-03-21T05:40:19;98551.03;;;8.55;100.00
37634;BME280;32048;49.902;22.508;2023-03-21T05:42:47;98557.94;;;8.58;100.00
37634;BME280;32048;49.902;22.508;2023-03-21T05:45:14;98556.25;;;8.57;100.00
37634;BME280;32048;49.902;22.508;2023-03-21T05:47:42;98555.47;;;8.55;100.00
37634;BME280;32048;49.902;22.508;2023-03-21T05:50:09;98563.34;;;8.55;100.00
37634;BME280;32048;49.902;22.508;2023-03-21T05:52:37;98553.09;;;8.48;100.00
37634;BME280;32048;49.902;22.508;2023-03-21T05:55:05;98561.00;;;8.48;100.00
37634;BME280;32048;49.902;22.508;2023-03-21T05:57:32;98565.34;;;8.49;100.00
37634;BME280;32048;49.902;22.508;2023-03-21T06:00:05;98567.91;;;8.51;100.00
37634;BME280;32048;49.902;22.508;2023-03-21T06:02:34;98568.75;;;8.51;100.00
37634;BME280;32048;49.902;22.508;2023-03-21T06:05:01;98573.16;;;8.51;100.00
37634;BME280;32048;49.902;22.508;2023-03-21T06:07:29;98573.22;;;8.49;100.00
37634;BME280;32048;49.902;22.508;2023-03-21T06:09:56;98576.00;;;8.46;100.00
37634;BME280;32048;49.902;22.508;2023-03-21T06:12:23;98578.59;;;8.48;100.00
37634;BME280;32048;49.902;22.508;2023-03-21T06:14:51;98582.00;;;8.50;100.00
37634;BME280;32048;49.902;22.508;2023-03-21T06:17:18;98580.44;;;8.46;100.00
37634;BME280;32048;49.902;22.508;2023-03-21T06:19:46;98577.78;;;8.46;100.00
37634;BME280;32048;49.902;22.508;2023-03-21T06:22:13;98580.44;;;8.46;100.00
37634;BME280;32048;49.902;22.508;2023-03-21T06:24:40;98579.50;;;8.47;100.00
37634;BME280;32048;49.902;22.508;2023-03-21T06:27:07;98583.91;;;8.46;100.00
37634;BME280;32048;49.902;22.508;2023-03-21T06:29:34;98584.69;;;8.48;100.00
37634;BME280;32048;49.902;22.508;2023-03-21T06:32:02;98582.06;;;8.48;100.00
37634;BME280;32048;49.902;22.508;2023-03-21T06:34:29;98582.00;;;8.50;100.00
37634;BME280;32048;49.902;22.508;2023-03-21T06:36:56;98578.59;;;8.48;100.00
37634;BME280;32048;49.902;22.508;2023-03-21T06:39:24;98587.25;;;8.50;100.00
37634;BME280;32048;49.902;22.508;2023-03-21T06:41:52;98581.13;;;8.49;100.00
37634;BME280;32048;49.902;22.508;2023-03-21T06:44:19;98583.53;;;8.54;100.00
37634;BME280;32048;49.902;22.508;2023-03-21T06:46:47;98589.47;;;8.59;100.00
37634;BME280;32048;49.902;22.508;2023-03-21T06:49:14;98595.34;;;8.64;100.00
37634;BME280;32048;49.902;22.508;2023-03-21T06:51:42;98590.81;;;8.68;100.00
37634;BME280;32048;49.902;22.508;2023-03-21T06:54:09;98594.34;;;8.67;100.00
37634;BME280;32048;49.902;22.508;2023-03-21T06:56:37;98593.28;;;8.71;100.00
37634;BME280;32048;49.902;22.508;2023-03-21T06:59:04;98594.97;;;8.72;100.00
37634;BME280;32048;49.902;22.508;2023-03-21T07:01:31;98593.28;;;8.71;100.00
37634;BME280;32048;49.902;22.508;2023-03-21T07:03:58;98595.91;;;8.71;100.00
37634;BME280;32048;49.902;22.508;2023-03-21T07:06:25;98603.88;;;8.69;100.00
37634;BME280;32048;49.902;22.508;2023-03-21T07:08:54;98598.63;;;8.69;100.00
37634;BME280;32048;49.902;22.508;2023-03-21T07:11:22;98606.44;;;8.71;100.00
37634;BME280;32048;49.902;22.508;2023-03-21T07:13:50;98609.72;;;8.76;100.00
37634;BME280;32048;49.902;22.508;2023-03-21T07:16:18;98609.44;;;8.82;100.00
37634;BME280;32048;49.902;22.508;2023-03-21T07:18:47;98610.16;;;8.86;100.00
37634;BME280;32048;49.902;22.508;2023-03-21T07:21:14;98613.47;;;8.89;100.00
37634;BME280;32048;49.902;22.508;2023-03-21T07:23:41;98618.63;;;8.92;100.00
37634;BME280;32048;49.902;22.508;2023-03-21T07:26:09;98607.88;;;8.97;100.00
37634;BME280;32048;49.902;22.508;2023-03-21T07:28:36;98612.91;;;9.02;100.00
37634;BME280;32048;49.902;22.508;2023-03-21T07:31:04;98605.47;;;9.10;100.00
37634;BME280;32048;49.902;22.508;2023-03-21T07:33:32;98607.25;;;9.09;100.00
37634;BME280;32048;49.902;22.508;2023-03-21T07:36:01;98613.56;;;9.24;100.00
37634;BME280;32048;49.902;22.508;2023-03-21T07:38:28;98613.91;;;9.35;100.00
37634;BME280;32048;49.902;22.508;2023-03-21T07:40:58;98610.66;;;9.48;100.00
37634;BME280;32048;49.902;22.508;2023-03-21T07:43:26;98618.09;;;9.57;100.00
37634;BME280;32048;49.902;22.508;2023-03-21T07:45:57;98621.28;;;9.64;100.00
37634;BME280;32048;49.902;22.508;2023-03-21T07:48:25;98617.31;;;9.72;100.00
37634;BME280;32048;49.902;22.508;2023-03-21T07:50:52;98623.13;;;9.79;100.00
37634;BME280;32048;49.902;22.508;2023-03-21T07:53:19;98624.63;;;9.85;100.00
37634;BME280;32048;49.902;22.508;2023-03-21T07:55:51;98621.81;;;9.88;100.00
37634;BME280;32048;49.902;22.508;2023-03-21T07:58:19;98617.25;;;9.91;100.00
37634;BME280;32048;49.902;22.508;2023-03-21T08:00:46;98623.84;;;10.00;100.00
37634;BME280;32048;49.902;22.508;2023-03-21T08:03:14;98620.00;;;10.06;100.00
37634;BME280;32048;49.902;22.508;2023-03-21T08:05:42;98620.72;;;10.09;100.00
37634;BME280;32048;49.902;22.508;2023-03-21T08:08:10;98624.03;;;10.13;100.00
37634;BME280;32048;49.902;22.508;2023-03-21T08:10:37;98623.00;;;10.15;100.00
37634;BME280;32048;49.902;22.508;2023-03-21T08:13:04;98626.53;;;10.16;100.00
37634;BME280;32048;49.902;22.508;2023-03-21T08:15:31;98625.59;;;10.17;100.00
37634;BME280;32048;49.902;22.508;2023-03-21T08:17:59;98629.84;;;10.19;100.00
37634;BME280;32048;49.902;22.508;2023-03-21T08:20:26;98632.16;;;10.26;100.00
37634;BME280;32048;49.902;22.508;2023-03-21T08:22:53;98631.88;;;10.32;100.00
37634;BME280;32048;49.902;22.508;2023-03-21T08:25:21;98631.41;;;10.41;100.00
37634;BME280;32048;49.902;22.508;2023-03-21T08:27:49;98636.34;;;10.47;100.00
37634;BME280;32048;49.902;22.508;2023-03-21T08:30:20;98643.91;;;10.53;100.00
37634;BME280;32048;49.902;22.508;2023-03-21T08:32:47;98641.97;;;10.57;100.00
37634;BME280;32048;49.902;22.508;2023-03-21T08:35:16;98638.06;;;10.64;100.00
37634;BME280;32048;49.902;22.508;2023-03-21T08:37:44;98646.84;;;10.65;100.00
37634;BME280;32048;49.902;22.508;2023-03-21T08:40:15;98648.38;;;10.69;100.00
37634;BME280;32048;49.902;22.508;2023-03-21T08:42:43;98648.31;;;10.70;100.00
37634;BME280;32048;49.902;22.508;2023-03-21T08:45:13;98651.03;;;10.69;100.00
37634;BME280;32048;49.902;22.508;2023-03-21T08:47:41;98651.34;;;10.63;100.00
37634;BME280;32048;49.902;22.508;2023-03-21T08:50:12;98655.78;;;10.62;100.00
37634;BME280;32048;49.902;22.508;2023-03-21T08:52:40;98661.84;;;10.64;100.00
37634;BME280;32048;49.902;22.508;2023-03-21T08:55:07;98657.16;;;10.69;100.00
37634;BME280;32048;49.902;22.508;2023-03-21T08:57:35;98661.34;;;10.73;100.00
37634;BME280;32048;49.902;22.508;2023-03-21T09:00:04;98662.03;;;10.77;100.00
37634;BME280;32048;49.902;22.508;2023-03-21T09:02:40;98668.75;;;10.82;100.00
37634;BME280;32048;49.902;22.508;2023-03-21T09:05:09;98670.38;;;10.85;100.00
37634;BME280;32048;49.902;22.508;2023-03-21T09:07:39;98664.50;;;10.80;100.00
37634;BME280;32048;49.902;22.508;2023-03-21T09:10:09;98668.88;;;10.81;100.00
37634;BME280;32048;49.902;22.508;2023-03-21T09:12:49;98661.78;;;10.81;100.00
37634;BME280;32048;49.902;22.508;2023-03-21T09:15:17;98665.97;;;10.86;100.00
37634;BME280;32048;49.902;22.508;2023-03-21T09:17:47;98664.09;;;10.88;100.00
37634;BME280;32048;49.902;22.508;2023-03-21T09:20:20;98661.97;;;10.94;100.00
37634;BME280;32048;49.902;22.508;2023-03-21T09:22:52;98661.34;;;11.05;100.00
37634;BME280;32048;49.902;22.508;2023-03-21T09:25:20;98664.88;;;11.06;100.00
37634;BME280;32048;49.902;22.508;2023-03-21T09:27:47;98664.69;;;11.09;100.00
37634;BME280;32048;49.902;22.508;2023-03-21T09:30:17;98668.88;;;11.13;100.00
37634;BME280;32048;49.902;22.508;2023-03-21T09:32:44;98658.13;;;11.16;100.00
37634;BME280;32048;49.902;22.508;2023-03-21T09:35:15;98664.94;;;11.20;100.00
37634;BME280;32048;49.902;22.508;2023-03-21T09:37:47;98669.66;;;11.15;100.00
37634;BME280;32048;49.902;22.508;2023-03-21T09:40:22;98670.75;;;11.11;100.00
37634;BME280;32048;49.902;22.508;2023-03-21T09:43:19;98664.69;;;11.09;100.00
37634;BME280;32048;49.902;22.508;2023-03-21T09:46:06;98662.13;;;11.07;100.00
37634;BME280;32048;49.902;22.508;2023-03-21T09:48:57;98659.59;;;11.06;100.00
37634;BME280;32048;49.902;22.508;2023-03-21T09:51:31;98662.13;;;11.23;100.00
37634;BME280;32048;49.902;22.508;2023-03-21T09:54:04;98657.50;;;11.42;100.00
37634;BME280;32048;49.902;22.508;2023-03-21T09:56:35;98656.06;;;11.53;100.00
37634;BME280;32048;49.902;22.508;2023-03-21T09:59:06;98664.38;;;11.61;100.00
37634;BME280;32048;49.902;22.508;2023-03-21T10:01:39;98661.19;;;11.70;100.00
37634;BME280;32048;49.902;22.508;2023-03-21T10:04:13;98660.94;;;11.75;100.00
37634;BME280;32048;49.902;22.508;2023-03-21T10:06:55;98662.94;;;11.85;100.00
37634;BME280;32048;49.902;22.508;2023-03-21T10:09:25;98663.81;;;12.02;100.00
37634;BME280;32048;49.902;22.508;2023-03-21T10:12:03;98671.06;;;11.98;100.00
37634;BME280;32048;49.902;22.508;2023-03-21T10:14:51;98673.50;;;12.01;100.00
37634;BME280;32048;49.902;22.508;2023-03-21T10:17:33;98662.69;;;12.20;100.00
37634;BME280;32048;49.902;22.508;2023-03-21T10:20:24;98660.53;;;12.27;100.00
37634;BME280;32048;49.902;22.508;2023-03-21T10:22:54;98664.50;;;12.34;100.00
37634;BME280;32048;49.902;22.508;2023-03-21T10:27:57;98667.47;;;12.58;100.00
37634;BME280;32048;49.902;22.508;2023-03-21T10:30:34;98669.91;;;12.61;100.00
37634;BME280;32048;49.902;22.508;2023-03-21T10:33:05;98667.16;;;12.77;100.00
37634;BME280;32048;49.902;22.508;2023-03-21T10:35:36;98666.97;;;12.95;100.00
37634;BME280;32048;49.902;22.508;2023-03-21T10:38:05;98672.63;;;12.88;99.17
37634;BME280;32048;49.902;22.508;2023-03-21T10:40:32;98668.00;;;12.92;99.37
37634;BME280;32048;49.902;22.508;2023-03-21T10:43:35;98663.00;;;12.87;97.99
37634;BME280;32048;49.902;22.508;2023-03-21T10:46:25;98668.75;;;12.94;97.48
37634;BME280;32048;49.902;22.508;2023-03-21T10:48:53;98658.91;;;12.96;99.18
37634;BME280;32048;49.902;22.508;2023-03-21T10:51:24;98665.81;;;12.99;100.00
37634;BME280;32048;49.902;22.508;2023-03-21T10:53:58;98667.44;;;12.87;96.74
37634;BME280;32048;49.902;22.508;2023-03-21T10:56:28;98654.47;;;12.82;98.38
37634;BME280;32048;49.902;22.508;2023-03-21T10:59:00;98660.34;;;12.73;99.52
37634;BME280;32048;49.902;22.508;2023-03-21T11:01:35;98664.22;;;12.53;97.35
37634;BME280;32048;49.902;22.508;2023-03-21T11:04:14;98657.53;;;12.33;98.91
37634;BME280;32048;49.902;22.508;2023-03-21T11:06:44;98662.63;;;12.22;100.00
37634;BME280;32048;49.902;22.508;2023-03-21T11:09:23;98657.28;;;12.07;100.00
37634;BME280;32048;49.902;22.508;2023-03-21T11:12:01;98655.97;;;11.84;100.00
37634;BME280;32048;49.902;22.508;2023-03-21T11:14:36;98660.53;;;11.67;100.00
37634;BME280;32048;49.902;22.508;2023-03-21T11:20:02;98653.53;;;11.65;100.00
37634;BME280;32048;49.902;22.508;2023-03-21T11:22:41;98649.50;;;11.74;100.00
37634;BME280;32048;49.902;22.508;2023-03-21T11:25:20;98650.53;;;11.88;100.00
37634;BME280;32048;49.902;22.508;2023-03-21T11:27:49;98647.78;;;11.89;100.00
37634;BME280;32048;49.902;22.508;2023-03-21T11:30:24;98643.06;;;11.94;100.00
37634;BME280;32048;49.902;22.508;2023-03-21T11:33:00;98647.78;;;11.89;100.00
37634;BME280;32048;49.902;22.508;2023-03-21T11:35:34;98647.78;;;11.89;100.00
37634;BME280;32048;49.902;22.508;2023-03-21T11:38:03;98645.78;;;11.93;100.00
37634;BME280;32048;49.902;22.508;2023-03-21T11:40:32;98645.44;;;11.99;100.00
37634;BME280;32048;49.902;22.508;2023-03-21T11:43:01;98642.41;;;11.91;100.00
37634;BME280;32048;49.902;22.508;2023-03-21T11:45:30;98641.31;;;12.09;100.00
37634;BME280;32048;49.902;22.508;2023-03-21T11:48:03;98641.31;;;12.23;100.00
37634;BME280;32048;49.902;22.508;2023-03-21T11:50:36;98638.59;;;12.39;100.00
37634;BME280;32048;49.902;22.508;2023-03-21T12:16:27;98622.91;;;13.61;87.81
37634;BME280;32048;49.902;22.508;2023-03-21T12:24:56;98605.59;;;14.72;82.69
37634;BME280;32048;49.902;22.508;2023-03-21T12:39:23;98597.50;;;15.34;72.33
37634;BME280;32048;49.902;22.508;2023-03-21T12:44:55;98601.91;;;14.99;72.86
37634;BME280;32048;49.902;22.508;2023-03-21T12:47:33;98595.91;;;14.71;73.88
37634;BME280;32048;49.902;22.508;2023-03-21T12:50:16;98589.44;;;14.49;74.88
37634;BME280;32048;49.902;22.508;2023-03-21T12:52:50;98587.53;;;14.26;75.79
37634;BME280;32048;49.902;22.508;2023-03-21T12:55:24;98589.78;;;14.06;76.85
37634;BME280;32048;49.902;22.508;2023-03-21T12:58:05;98586.78;;;13.85;78.32
37634;BME280;32048;49.902;22.508;2023-03-21T13:00:54;98587.84;;;13.70;79.41
37634;BME280;32048;49.902;22.508;2023-03-21T13:03:28;98586.09;;;13.56;80.20
37634;BME280;32048;49.902;22.508;2023-03-21T13:06:12;98584.88;;;13.35;81.20
37634;BME280;32048;49.902;22.508;2023-03-21T13:08:48;98586.91;;;13.17;82.14
37634;BME280;32048;49.902;22.508;2023-03-21T13:11:20;98581.53;;;13.04;83.34
37634;BME280;32048;49.902;22.508;2023-03-21T13:14:12;98584.94;;;12.79;84.31
37634;BME280;32048;49.902;22.508;2023-03-21T13:16:51;98584.38;;;12.59;85.83
37634;BME280;32048;49.902;22.508;2023-03-21T13:22:06;98587.50;;;12.37;86.41
37634;BME280;32048;49.902;22.508;2023-03-21T13:24:41;98586.09;;;12.17;87.18
37634;BME280;32048;49.902;22.508;2023-03-21T13:30:00;98586.13;;;11.87;89.81
37634;BME280;32048;49.902;22.508;2023-03-21T13:32:48;98579.13;;;11.72;90.66
37634;BME280;32048;49.902;22.508;2023-03-21T13:35:23;98591.28;;;11.60;92.61
37634;BME280;32048;49.902;22.508;2023-03-21T13:38:01;98588.41;;;11.49;92.77
37634;BME280;32048;49.902;22.508;2023-03-21T13:40:59;98592.72;;;11.35;94.68
37634;BME280;32048;49.902;22.508;2023-03-21T13:46:09;98588.28;;;11.20;98.30
37634;BME280;32048;49.902;22.508;2023-03-21T13:48:40;98585.16;;;10.97;100.00
37634;BME280;32048;49.902;22.508;2023-03-21T13:53:59;98581.69;;;10.81;100.00
37634;BME280;32048;49.902;22.508;2023-03-21T13:56:27;98588.16;;;10.75;100.00
37634;BME280;32048;49.902;22.508;2023-03-21T13:59:01;98581.78;;;10.64;100.00
37634;BME280;32048;49.902;22.508;2023-03-21T14:01:38;98595.28;;;10.57;100.00
37634;BME280;32048;49.902;22.508;2023-03-21T14:04:13;98580.56;;;10.53;100.00
37634;BME280;32048;49.902;22.508;2023-03-21T14:06:54;98581.50;;;10.52;100.00
37634;BME280;32048;49.902;22.508;2023-03-21T14:09:32;98582.34;;;10.53;100.00
37634;BME280;32048;49.902;22.508;2023-03-21T14:12:04;98578.94;;;10.51;100.00
37634;BME280;32048;49.902;22.508;2023-03-21T14:14:39;98577.31;;;10.48;100.00
37634;BME280;32048;49.902;22.508;2023-03-21T14:17:27;98582.53;;;10.50;100.00
37634;BME280;32048;49.902;22.508;2023-03-21T14:19:58;98578.94;;;10.51;100.00
37634;BME280;32048;49.902;22.508;2023-03-21T14:22:28;98574.59;;;10.50;100.00
37634;BME280;32048;49.902;22.508;2023-03-21T14:24:59;98569.72;;;10.42;100.00
37634;BME280;32048;49.902;22.508;2023-03-21T14:27:32;98571.69;;;10.38;100.00
37634;BME280;32048;49.902;22.508;2023-03-21T14:30:00;98574.25;;;10.40;100.00
37634;BME280;32048;49.902;22.508;2023-03-21T14:32:29;98577.22;;;10.34;100.00
37634;BME280;32048;49.902;22.508;2023-03-21T14:34:59;98570.63;;;10.25;100.00
37634;BME280;32048;49.902;22.508;2023-03-21T14:37:27;98571.00;;;10.17;100.00
37634;BME280;32048;49.902;22.508;2023-03-21T14:39:58;98563.19;;;10.16;100.00